Historyczne dane pomiarowe

Dodano dane terminowe – wersja testowa.

Dane z okresu 1951-2019

Wersja bazy: 1.34 [2019-03-16, lista zmian], aktualizacja planowana na 2019-04-15

Dane meteo z obszaru Polski uzyskane na podstawie danych udostępnionych przez Instytut Meteorologii i Gospodarki Wodnej – Państwowy Instytut Badawczy.

 

Wybierz Datę:    

       

TemperaturaWilgotnośćWiatrCiśnienieOpadyŚniegCzas trwania zjawisk
 Stacja t tx tn tng RH VA  wxwx mslp ppp RRR   cm mm wxwxwxwxwxwxwx
1961-08-14 14.6 20.2 6.2- 82.8- 5.3 0.7---- 0.0------------
1961-08-13 14.1 19.3 12.7- 77.8- 4.7 2.0---- 0.0------------
1961-08-12 17.2 20.8 14.8- 85.8- 8.0 1.7---- 0.3------------
1961-08-11 17.4 20.2 16.5- 99.0- 6.3 1.0---- 27.3------------
1961-08-10 21.3 29.0 17.1- 89.0- 4.0 1.3---- 4.6------------
1961-08-09 20.8 26.3 15.5- 82.8- 6.7 0.7---- 5.0------------
1961-08-08 19.0 24.0 9.4- 86.3- 3.3 2.0---- 0.0------------
1961-08-07 18.8 25.1 17.0- 85.0- 6.0 1.7---- 5.8------------
1961-08-06 24.9 32.1 15.5- 62.8- 1.3 2.0---- 1.2------------
1961-08-05 19.1 26.0 15.6- 83.5- 2.7 1.3---- 0.0------------
1961-08-04 16.1 20.2 7.1- 74.0- 7.3 1.3---- 0.4------------
1961-08-03 14.6 19.3 9.6- 79.8- 3.7 2.7---- 0.0------------
1961-08-02 15.2 23.2 8.8- 90.8- 4.3 1.7---- 2.1------------
1961-08-01 16.3 21.8 12.2- 73.0- 1.3 2.7---- 0.0------------
1961-07-31 14.1 17.5 12.0- 82.5- 7.3 4.0---- 0.0------------
1961-07-30 13.6 17.3 9.2- 86.8- 7.7 3.0---- 15.9------------
1961-07-29 13.3 18.3 12.0- 81.8- 4.3 3.3---- 0.0------------
1961-07-28 15.6 19.6 12.9- 91.0- 7.7 1.7---- 15.8------------
1961-07-27 19.3 25.2 14.4- 74.8- 7.0 2.7---- 3.5------------
1961-07-26 18.8 25.2 9.3- 67.8- 3.0 1.0---- 0.0------------
1961-07-25 13.6 18.5 12.1- 82.5- 6.0 1.0---- 0.0------------
1961-07-24 14.6 17.8 12.4- 75.0- 7.3 3.3---- 0.0------------
1961-07-23 14.3 16.7 10.7- 84.0- 5.7 2.7---- 0.0------------
1961-07-22 15.1 18.3 13.1- 84.5- 7.7 2.0---- 0.7------------
1961-07-21 14.5 16.7 13.8- 86.8- 7.7 3.7---- 4.1------------
1961-07-20 15.6 20.5 7.8- 81.3- 7.3 1.3---- 2.7------------
1961-07-19 15.2 18.6 13.0- 88.3- 6.3 1.3---- 2.2------------
1961-07-18 15.7 20.3 12.0- 77.5- 5.7 4.0---- 0.0------------
1961-07-17 13.9 18.9 7.0- 84.8- 7.3 3.0---- 1.6------------
1961-07-16 16.6 23.2 13.7- 79.8- 3.7 1.0---- 0.1------------
1961-07-15 19.1 25.6 12.7- 71.8- 4.0 2.3---- 11.2------------
1961-07-14 17.2 22.1 13.7- 62.8- 5.3 4.0---- 1.0------------
1961-07-13 17.5 25.4 15.1- 90.3- 5.3 3.0---- 1.1------------
1961-07-12 21.1 27.5 13.5- 80.0- 1.3 1.3---- 0.0------------
1961-07-11 17.1 23.5 8.4- 84.3- 7.0 0.7---- 0.0------------
1961-07-10 14.3 17.8 11.0- 70.3- 4.0 2.3---- 0.2------------
1961-07-09 14.4 18.3 10.9- 85.0- 7.7 4.0---- 7.7------------
1961-07-08 15.5 22.9 5.3- 73.3- 3.7 1.3---- 1.0------------
1961-07-07 13.3 18.0 10.9- 76.0- 4.0 2.7---- 0.0------------
1961-07-06 12.6 17.1 9.6- 78.8- 7.0 3.3---- 0.8------------
1961-07-05 12.2 17.9 10.5- 79.0- 4.7 4.3---- 0.2------------
1961-07-04 18.8 25.7 15.5- 76.8- 6.3 2.0---- 0.0------------
1961-07-03 24.8 32.4 13.4- 61.0- 1.7 1.0---- 0.0------------
1961-07-02 22.5 29.9 12.3- 64.0- 0.0 0.3---- 0.0------------
1961-07-01 21.1 27.7 10.5- 77.3- 0.0 0.7---- 0.0------------
1961-06-30 18.8 25.5 9.3- 76.3- 0.0 0.7---- 0.0------------
1961-06-29 16.8 23.0 11.5- 77.3- 0.3 2.3---- 0.0------------
1961-06-28 15.0 21.8 13.5- 66.0- 3.7 5.0---- 0.0------------
1961-06-27 22.2 27.6 15.5- 80.0- 6.7 1.0---- 4.6------------
1961-06-26 21.8 27.4 14.2- 78.8- 3.7 1.0---- 0.0------------
1961-06-25 22.9 29.6 12.0- 69.5- 0.7 1.0---- 0.0------------
1961-06-24 19.0 25.4 11.0- 76.5- 5.3 3.3---- 0.0------------
1961-06-23 18.4 22.7 15.5- 72.0- 2.0 3.3---- 0.0------------
1961-06-22 18.6 24.6 7.3- 81.3- 3.3 3.0---- 5.1------------
1961-06-21 15.8 24.4 6.9- 74.8- 1.7 0.7---- 0.0------------
1961-06-20 14.5 20.8 9.4- 71.0- 1.3 1.7---- 0.0------------
1961-06-19 16.5 21.3 14.0- 78.5- 4.7 2.3---- 2.0------------
1961-06-18 21.3 27.6 10.4- 66.5- 0.0 1.0---- 0.3------------
1961-06-17 17.3 23.5 5.6- 72.0- 3.3 1.3---- 0.0------------
1961-06-16 13.7 20.2 7.6- 74.8- 5.0 2.7---- 0.0------------
1284.2 ms

 

Źródłem pochodzenia danych jest Instytut Meteorologii i Gospodarki Wodnej – Państwowy Instytut Badawczy. Dane Instytutu Meteorologii i Gospodarki Wodnej – Państwowego Instytutu Badawczego zostały przetworzone.

Dane źródłowe można odnaleźć na stronie https://dane.imgw.pl